Time;durP1;ratioP1;P1;durP2;ratioP2;P2;SDS_P1;SDS_P2;PMS_P1;PMS_P2;Temp;Humidity;BMP_temperature;BMP_pressure;BME280_temperature;BME280_humidity;BME280_pressure;Samples;Min_cycle;Max_cycle;Signal;HPM_P1;HPM_P2
2021/12/22 00:00:43;;;;;;;24.08;18.92;;;;;;;-5.18;100.00;96510.44;5010623;28;24972;-75
2021/12/22 00:03:10;;;;;;;21.25;16.30;;;;;;;-5.23;100.00;96507.03;5010420;28;24954;-74
2021/12/22 00:05:43;;;;;;;18.55;15.35;;;;;;;-5.26;100.00;96499.44;5010385;28;24423;-75
2021/12/22 00:08:10;;;;;;;18.60;15.38;;;;;;;-5.23;100.00;96504.50;5010516;28;24433;-75
2021/12/22 00:10:37;;;;;;;18.02;14.73;;;;;;;-5.30;100.00;96501.88;5010547;28;24447;-73
2021/12/22 00:13:04;;;;;;;19.52;15.27;;;;;;;-5.34;100.00;96503.53;5010440;28;24416;-75
2021/12/22 00:15:30;;;;;;;20.88;16.40;;;;;;;-5.74;100.00;96495.53;5010200;28;24448;-75
2021/12/22 00:17:57;;;;;;;19.63;16.48;;;;;;;-5.95;100.00;96506.22;5010332;28;24460;-75
2021/12/22 00:20:23;;;;;;;25.08;17.45;;;;;;;-6.00;100.00;96512.88;5010602;28;24478;-75
2021/12/22 00:22:50;;;;;;;22.98;18.20;;;;;;;-5.92;100.00;96516.31;5010347;28;24419;-75
2021/12/22 00:25:17;;;;;;;23.98;18.65;;;;;;;-5.81;100.00;96524.03;5010008;28;24782;-74
2021/12/22 00:27:44;;;;;;;22.67;16.60;;;;;;;-5.69;100.00;96516.59;5010453;28;24829;-75
2021/12/22 00:30:11;;;;;;;20.17;16.05;;;;;;;-5.76;100.00;96512.31;5010505;28;24786;-75
2021/12/22 00:32:39;;;;;;;20.80;15.63;;;;;;;-5.75;100.00;96516.50;5010332;28;24424;-75
2021/12/22 00:35:09;;;;;;;22.65;16.17;;;;;;;-5.72;100.00;96518.25;5010148;28;24536;-75
2021/12/22 00:37:35;;;;;;;19.23;16.50;;;;;;;-5.67;100.00;96516.63;5011161;28;24428;-75
2021/12/22 00:40:02;;;;;;;20.50;16.00;;;;;;;-5.62;100.00;96510.81;5013783;28;24502;-75
2021/12/22 00:42:28;;;;;;;24.67;16.88;;;;;;;-5.55;100.00;96500.78;5013692;28;24874;-75
2021/12/22 00:44:56;;;;;;;22.95;15.43;;;;;;;-5.62;100.00;96508.28;5013467;28;25028;-75
2021/12/22 00:47:27;;;;;;;20.42;15.75;;;;;;;-5.70;100.00;96514.06;5013541;28;24527;-75
2021/12/22 00:49:54;;;;;;;24.60;16.33;;;;;;;-6.11;100.00;96510.22;5013479;28;24834;-75
2021/12/22 00:52:21;;;;;;;22.63;15.55;;;;;;;-6.14;100.00;96521.94;5013474;28;24417;-75
2021/12/22 00:54:47;;;;;;;17.35;14.45;;;;;;;-6.02;100.00;96522.09;5013185;28;24459;-75
2021/12/22 00:57:16;;;;;;;19.83;14.45;;;;;;;-5.94;100.00;96522.19;5013152;28;24798;-75
2021/12/22 00:59:45;;;;;;;20.48;15.32;;;;;;;-5.82;100.00;96524.00;5013294;28;24431;-75
2021/12/22 01:02:14;;;;;;;18.60;15.10;;;;;;;-5.86;100.00;96520.56;5013258;28;24814;-75
2021/12/22 01:04:42;;;;;;;19.52;15.18;;;;;;;-5.82;100.00;96511.38;5013157;28;24424;-75
2021/12/22 01:07:10;;;;;;;17.23;13.48;;;;;;;-5.79;100.00;96511.41;5013290;28;24427;-75
2021/12/22 01:09:37;;;;;;;17.80;13.93;;;;;;;-5.80;100.00;96514.78;5013203;28;24435;-75
2021/12/22 01:12:05;;;;;;;16.77;14.68;;;;;;;-5.77;100.00;96517.34;5013243;28;24409;-75
2021/12/22 01:14:32;;;;;;;20.58;13.82;;;;;;;-5.82;100.00;96517.28;5013007;28;24420;-75
2021/12/22 01:17:01;;;;;;;19.30;14.25;;;;;;;-5.94;100.00;96522.19;5012773;28;24424;-75
2021/12/22 01:19:38;;;;;;;15.82;13.40;;;;;;;-6.05;100.00;96523.72;5012847;28;24448;-75
2021/12/22 01:22:18;;;;;;;16.15;13.25;;;;;;;-6.07;100.00;96525.38;5013058;28;24512;-75
2021/12/22 01:24:48;;;;;;;17.50;13.55;;;;;;;-6.07;100.00;96530.44;5012877;28;24464;-74
2021/12/22 01:27:20;;;;;;;16.50;14.23;;;;;;;-6.15;100.00;96513.53;5012741;28;24519;-74
2021/12/22 01:29:46;;;;;;;20.98;16.17;;;;;;;-6.11;100.00;96517.78;5012775;28;24424;-74
2021/12/22 01:32:14;;;;;;;22.60;16.30;;;;;;;-6.21;100.00;96515.94;5012938;28;24428;-75
2021/12/22 01:34:41;;;;;;;19.05;15.02;;;;;;;-6.19;100.00;96516.84;5012808;28;24447;-75
2021/12/22 01:37:08;;;;;;;18.77;14.90;;;;;;;-6.21;100.00;96518.47;5012653;28;24436;-75
2021/12/22 01:39:34;;;;;;;20.73;13.60;;;;;;;-6.13;100.00;96516.06;5012672;28;24435;-75
2021/12/22 01:42:01;;;;;;;17.42;13.05;;;;;;;-6.25;100.00;96511.69;5011808;28;24841;-75
2021/12/22 01:44:34;;;;;;;17.53;12.17;;;;;;;-6.30;100.00;96517.47;5012382;28;24436;-75
2021/12/22 01:49:51;;;;;;;21.67;14.23;;;;;;;-6.84;100.00;96539.31;5011411;28;24428;-75
2021/12/22 01:52:19;;;;;;;19.45;13.88;;;;;;;-7.02;100.00;96534.81;5012343;28;24424;-74
2021/12/22 01:54:50;;;;;;;18.35;12.98;;;;;;;-6.90;100.00;96536.69;5011998;28;24435;-74
2021/12/22 01:57:18;;;;;;;16.52;13.15;;;;;;;-6.75;100.00;96529.38;5012016;28;25097;-75
2021/12/22 01:59:47;;;;;;;16.23;12.98;;;;;;;-6.76;100.00;96529.38;5012307;28;24478;-75
2021/12/22 02:02:15;;;;;;;19.50;13.73;;;;;;;-6.62;100.00;96528.78;5012284;28;24420;-73
2021/12/22 02:04:42;;;;;;;17.90;14.27;;;;;;;-6.53;100.00;96537.28;5012208;28;24825;-74
2021/12/22 02:07:11;;;;;;;16.58;13.93;;;;;;;-6.44;100.00;96530.75;5011872;28;24412;-75
2021/12/22 02:09:58;;;;;;;18.92;13.45;;;;;;;-6.35;100.00;96530.03;5011738;28;24994;-74
2021/12/22 02:12:27;;;;;;;18.90;14.27;;;;;;;-6.30;100.00;96525.91;5011991;28;24435;-75
2021/12/22 02:14:54;;;;;;;16.95;14.00;;;;;;;-6.41;100.00;96528.28;5011555;28;25024;-75
2021/12/22 02:17:20;;;;;;;19.88;13.75;;;;;;;-6.43;100.00;96522.34;5011706;28;24420;-75
2021/12/22 02:19:48;;;;;;;15.35;13.63;;;;;;;-6.64;100.00;96520.34;5011883;28;24437;-75
2021/12/22 02:22:18;;;;;;;17.45;14.52;;;;;;;-6.90;100.00;96527.47;5011638;28;24988;-75
2021/12/22 02:24:50;;;;;;;15.05;13.43;;;;;;;-7.01;100.00;96528.94;5012028;28;24527;-75
2021/12/22 02:27:23;;;;;;;18.30;13.67;;;;;;;-6.94;100.00;96529.91;5011642;28;24581;-75
2021/12/22 02:29:56;;;;;;;21.92;14.13;;;;;;;-6.86;100.00;96530.88;5011589;28;24436;-75
2021/12/22 02:32:40;;;;;;;20.45;13.40;;;;;;;-6.70;100.00;96522.78;5011498;28;24420;-75
2021/12/22 02:35:08;;;;;;;16.55;13.93;;;;;;;-6.54;100.00;96518.81;5011625;28;24527;-75
2021/12/22 02:37:44;;;;;;;20.83;14.00;;;;;;;-6.60;100.00;96519.59;5011737;28;24531;-75
2021/12/22 02:40:14;;;;;;;16.70;13.18;;;;;;;-6.60;100.00;96517.06;5011378;28;24922;-75
2021/12/22 02:42:41;;;;;;;19.27;13.85;;;;;;;-6.68;100.00;96518.59;5011402;28;24421;-75
2021/12/22 02:45:09;;;;;;;19.17;14.65;;;;;;;-6.80;100.00;96518.41;5011037;28;24996;-75
2021/12/22 02:47:36;;;;;;;16.52;13.60;;;;;;;-6.80;100.00;96525.13;5011527;28;24436;-75
2021/12/22 02:50:04;;;;;;;19.73;14.60;;;;;;;-6.76;100.00;96521.81;5011363;28;24432;-75
2021/12/22 02:52:41;;;;;;;17.48;13.95;;;;;;;-6.62;100.00;96520.38;5011329;28;24427;-75
2021/12/22 02:55:08;;;;;;;26.25;12.90;;;;;;;-6.50;100.00;96510.47;5011064;28;25020;-75
2021/12/22 02:57:40;;;;;;;19.50;14.13;;;;;;;-6.43;100.00;96511.41;5011068;28;24420;-74
2021/12/22 03:00:30;;;;;;;17.52;13.65;;;;;;;-6.49;100.00;96506.28;5010955;28;24989;-75
2021/12/22 03:03:07;;;;;;;23.67;14.97;;;;;;;-6.55;100.00;96503.69;5011571;28;24579;-75
2021/12/22 03:05:34;;;;;;;19.52;14.93;;;;;;;-6.47;100.00;96507.16;5010926;28;24849;-75
2021/12/22 03:08:02;;;;;;;18.58;14.48;;;;;;;-6.59;100.00;96516.22;5010848;28;24432;-73
2021/12/22 03:10:29;;;;;;;16.27;13.35;;;;;;;-6.59;100.00;96516.22;5011145;28;24431;-74
2021/12/22 03:13:01;;;;;;;17.67;14.02;;;;;;;-6.48;100.00;96518.06;5011335;28;24419;-75
2021/12/22 03:15:28;;;;;;;14.98;13.30;;;;;;;-6.45;100.00;96520.63;5010612;28;24484;-75
2021/12/22 03:17:54;;;;;;;21.63;15.32;;;;;;;-6.42;100.00;96511.44;5010861;28;24435;-75
2021/12/22 03:20:21;;;;;;;18.17;14.98;;;;;;;-6.48;100.00;96513.88;5010771;28;24416;-75
2021/12/22 03:22:48;;;;;;;22.83;15.32;;;;;;;-6.50;100.00;96515.50;5011032;28;24427;-74
2021/12/22 03:25:17;;;;;;;23.42;15.88;;;;;;;-6.53;100.00;96517.13;5010793;28;24436;-75
2021/12/22 03:27:45;;;;;;;18.48;13.73;;;;;;;-6.61;100.00;96515.34;5010698;28;25023;-73
2021/12/22 03:30:13;;;;;;;17.55;13.98;;;;;;;-6.66;100.00;96516.97;5010766;28;24450;-75
2021/12/22 03:32:40;;;;;;;17.80;13.73;;;;;;;-6.67;100.00;96515.28;5010803;28;24754;-75
2021/12/22 03:35:07;;;;;;;18.85;13.40;;;;;;;-6.69;100.00;96521.94;5010455;28;24416;-74
2021/12/22 03:37:34;;;;;;;21.13;14.18;;;;;;;-6.65;100.00;96522.84;5010761;28;24428;-73
2021/12/22 03:40:00;;;;;;;19.75;14.60;;;;;;;-6.67;100.00;96522.81;5010537;28;24435;-75
2021/12/22 03:42:28;;;;;;;18.65;13.90;;;;;;;-6.63;100.00;96527.09;5010689;28;24790;-75
2021/12/22 03:44:55;;;;;;;17.92;13.55;;;;;;;-6.47;100.00;96532.38;5010547;28;24447;-75
2021/12/22 03:47:22;;;;;;;17.20;12.90;;;;;;;-6.50;100.00;96530.63;5010466;28;24942;-75
2021/12/22 03:49:48;;;;;;;18.20;13.73;;;;;;;-6.46;100.00;96524.81;5010799;28;24432;-75
2021/12/22 03:52:15;;;;;;;21.55;12.57;;;;;;;-6.52;100.00;96533.97;5010567;28;24427;-74
2021/12/22 03:54:42;;;;;;;16.60;12.75;;;;;;;-6.54;100.00;96530.56;5010646;28;24416;-75
2021/12/22 03:57:08;;;;;;;15.40;12.73;;;;;;;-6.46;100.00;96526.50;5010206;28;24535;-74
2021/12/22 03:59:36;;;;;;;18.10;13.70;;;;;;;-6.50;100.00;96532.31;5010470;28;24436;-74
2021/12/22 04:02:03;;;;;;;18.67;14.23;;;;;;;-6.53;100.00;96534.78;5010329;28;24470;-75
2021/12/22 04:04:30;;;;;;;17.65;14.13;;;;;;;-6.52;100.00;96527.25;5010816;28;24435;-75
2021/12/22 04:06:56;;;;;;;15.65;13.75;;;;;;;-6.60;100.00;96518.72;5010523;28;24436;-75
2021/12/22 04:09:27;;;;;;;18.35;13.95;;;;;;;-6.54;100.00;96528.91;5010762;28;24945;-74
2021/12/22 04:11:54;;;;;;;18.20;13.65;;;;;;;-6.59;100.00;96531.34;5010808;28;24854;-74
2021/12/22 04:14:21;;;;;;;18.13;13.98;;;;;;;-6.69;98.91;96528.66;5014159;28;24440;-74
2021/12/22 04:16:49;;;;;;;16.02;13.57;;;;;;;-6.70;98.82;96521.94;5013712;28;24444;-74
2021/12/22 04:19:15;;;;;;;19.52;15.27;;;;;;;-6.54;95.14;96516.28;5014163;28;24435;-74
2021/12/22 04:21:42;;;;;;;25.60;14.43;;;;;;;-6.76;94.02;96511.75;5014253;28;24432;-75
2021/12/22 04:24:08;;;;;;;19.23;14.57;;;;;;;-7.03;96.18;96522.22;5013940;28;24504;-75
2021/12/22 04:26:35;;;;;;;18.55;14.18;;;;;;;-7.23;99.35;96521.84;5013647;28;24862;-75
2021/12/22 04:29:01;;;;;;;21.52;14.68;;;;;;;-7.23;100.00;96515.16;5013916;28;24781;-75
2021/12/22 04:31:27;;;;;;;15.57;13.80;;;;;;;-7.18;100.00;96523.63;5014016;28;24428;-74
2021/12/22 04:33:55;;;;;;;22.50;15.25;;;;;;;-7.14;99.56;96507.75;5014376;28;24842;-75
2021/12/22 04:36:22;;;;;;;18.88;14.90;;;;;;;-7.16;100.00;96511.06;5013673;28;25004;-75
2021/12/22 04:38:48;;;;;;;18.70;14.40;;;;;;;-7.37;100.00;96509.03;5014046;28;24787;-75
2021/12/22 04:41:15;;;;;;;18.45;14.48;;;;;;;-7.28;100.00;96511.69;5013986;28;24432;-75
2021/12/22 04:43:41;;;;;;;20.73;15.52;;;;;;;-7.35;100.00;96505.69;5013344;28;24494;-75
2021/12/22 04:46:08;;;;;;;21.27;15.50;;;;;;;-7.36;100.00;96506.53;5013312;28;25017;-75
2021/12/22 04:48:35;;;;;;;19.85;15.85;;;;;;;-7.64;100.00;96511.84;5013451;28;25030;-75
2021/12/22 04:51:11;;;;;;;18.98;15.48;;;;;;;-7.81;100.00;96509.00;5013661;28;24782;-75
2021/12/22 04:53:48;;;;;;;15.85;13.82;;;;;;;-7.93;100.00;96501.22;5013548;28;24432;-73
2021/12/22 04:56:14;;;;;;;20.85;14.52;;;;;;;-7.77;100.00;96499.88;5012905;28;24451;-75
2021/12/22 04:58:41;;;;;;;16.65;14.23;;;;;;;-7.55;100.00;96495.28;5013682;28;24427;-75
2021/12/22 05:01:07;;;;;;;30.98;20.95;;;;;;;-7.37;100.00;96501.47;5013434;28;24471;-75
2021/12/22 05:03:33;;;;;;;22.65;17.90;;;;;;;-7.32;100.00;96503.25;5013382;28;24427;-75
2021/12/22 05:06:00;;;;;;;16.10;13.70;;;;;;;-7.39;100.00;96503.94;5013207;28;24827;-75
2021/12/22 05:08:29;;;;;;;16.45;13.73;;;;;;;-7.63;100.00;96506.88;5012992;28;24961;-73
2021/12/22 05:10:56;;;;;;;18.38;13.70;;;;;;;-7.65;100.00;96505.97;5012966;28;24436;-75
2021/12/22 05:13:22;;;;;;;22.33;13.60;;;;;;;-7.66;100.00;96506.81;5013270;28;24822;-75
2021/12/22 05:15:49;;;;;;;19.58;13.88;;;;;;;-7.55;100.00;96510.38;5013051;28;24420;-75
2021/12/22 05:18:24;;;;;;;17.80;13.27;;;;;;;-7.45;100.00;96515.56;5013359;28;24955;-74
2021/12/22 05:20:52;;;;;;;19.48;13.30;;;;;;;-7.37;100.00;96517.41;5013029;28;24463;-75
2021/12/22 05:23:19;;;;;;;17.60;14.13;;;;;;;-7.40;100.00;96521.53;5012766;28;24826;-75
2021/12/22 05:25:47;;;;;;;18.15;14.20;;;;;;;-7.30;100.00;96520.91;5012752;28;24420;-75
2021/12/22 05:28:13;;;;;;;17.40;13.50;;;;;;;-7.21;100.00;96518.53;5013030;28;24472;-75
2021/12/22 05:30:40;;;;;;;16.88;13.63;;;;;;;-7.24;100.00;96515.97;5012809;28;24432;-75
2021/12/22 05:33:06;;;;;;;16.08;12.93;;;;;;;-7.19;100.00;96511.88;5012871;28;24427;-75
2021/12/22 05:35:33;;;;;;;16.43;13.03;;;;;;;-7.15;100.00;96510.25;5012523;28;24431;-75
2021/12/22 05:37:59;;;;;;;16.70;12.77;;;;;;;-7.11;100.00;96509.50;5012251;28;24475;-74
2021/12/22 05:40:28;;;;;;;15.40;12.43;;;;;;;-7.05;100.00;96512.09;5013791;28;24435;-75
2021/12/22 05:42:57;;;;;;;13.70;11.98;;;;;;;-6.98;100.00;96518.94;5013079;28;24422;-74
2021/12/22 05:45:24;;;;;;;15.52;13.07;;;;;;;-6.94;100.00;96524.88;5012200;28;24796;-74
2021/12/22 05:47:52;;;;;;;19.65;13.43;;;;;;;-6.96;100.00;96526.53;5012496;28;24467;-73
2021/12/22 05:50:20;;;;;;;18.17;13.00;;;;;;;-6.90;100.00;96522.44;5012256;28;24961;-75
2021/12/22 05:52:46;;;;;;;14.63;12.50;;;;;;;-6.88;100.00;96525.00;5012359;28;24961;-74
2021/12/22 05:55:13;;;;;;;16.98;12.93;;;;;;;-6.80;100.00;96520.91;5012551;28;24431;-75
2021/12/22 05:57:39;;;;;;;15.95;12.70;;;;;;;-6.72;100.00;96516.00;5012651;28;24443;-75
2021/12/22 06:00:09;;;;;;;16.40;12.45;;;;;;;-6.72;100.00;96510.97;5012539;28;24495;-75
2021/12/22 06:02:35;;;;;;;20.23;14.63;;;;;;;-6.76;100.00;96509.22;5012429;28;24837;-74
2021/12/22 06:05:02;;;;;;;19.27;14.02;;;;;;;-6.84;100.00;96504.91;5012093;28;24825;-75
2021/12/22 06:07:28;;;;;;;20.02;15.13;;;;;;;-6.78;100.00;96500.81;5012362;28;24798;-74
2021/12/22 06:09:54;;;;;;;17.25;14.43;;;;;;;-6.79;100.00;96499.09;5012015;28;24798;-74
2021/12/22 06:12:21;;;;;;;20.75;14.98;;;;;;;-6.87;100.00;96501.50;5012601;28;24440;-75
2021/12/22 06:14:47;;;;;;;25.33;14.98;;;;;;;-7.03;100.00;96512.13;5012381;28;24446;-74
2021/12/22 06:17:15;;;;;;;22.05;14.93;;;;;;;-7.02;100.00;96511.31;5012001;28;24444;-75
2021/12/22 06:19:42;;;;;;;24.00;16.42;;;;;;;-6.96;100.00;96511.44;5012055;28;25004;-75
2021/12/22 06:22:09;;;;;;;34.28;20.95;;;;;;;-6.94;100.00;96509.75;5010782;28;24949;-77
2021/12/22 06:24:36;;;;;;;21.42;15.05;;;;;;;-6.88;100.00;96504.84;5007388;28;24992;-76
2021/12/22 06:27:03;;;;;;;15.57;13.40;;;;;;;-6.82;100.00;96505.78;5012063;28;24431;-76
2021/12/22 06:29:29;;;;;;;18.52;13.18;;;;;;;-6.80;100.00;96510.00;5012242;28;24440;-76
2021/12/22 06:31:55;;;;;;;17.10;14.18;;;;;;;-6.86;100.00;96518.28;5013025;28;24436;-76
2021/12/22 06:34:23;;;;;;;16.17;13.30;;;;;;;-6.90;100.00;96519.06;5012939;28;24439;-74
2021/12/22 06:36:50;;;;;;;17.90;13.85;;;;;;;-6.82;100.00;96518.38;5012524;28;24449;-76
2021/12/22 06:39:18;;;;;;;16.75;13.18;;;;;;;-6.91;100.00;96528.28;5013151;28;24826;-75
2021/12/22 06:41:45;;;;;;;19.52;13.10;;;;;;;-6.95;100.00;96519.00;5012839;28;24426;-74
2021/12/22 06:44:11;;;;;;;16.90;13.27;;;;;;;-6.92;100.00;96519.06;5013543;28;24428;-75
2021/12/22 06:46:37;;;;;;;19.27;12.90;;;;;;;-6.89;100.00;96514.06;5013454;28;24439;-75
2021/12/22 06:49:04;;;;;;;17.13;14.18;;;;;;;-7.01;100.00;96521.41;5013321;28;24427;-76
2021/12/22 06:51:32;;;;;;;15.57;13.73;;;;;;;-7.16;100.00;96519.47;5007853;28;24436;-75
2021/12/22 06:53:58;;;;;;;17.23;12.95;;;;;;;-7.16;100.00;96516.94;5012581;28;24435;-74
2021/12/22 06:56:25;;;;;;;17.58;13.13;;;;;;;-7.12;100.00;96518.72;5013162;28;24447;-75
2021/12/22 06:58:52;;;;;;;22.27;15.07;;;;;;;-7.06;100.00;96513.78;5012554;28;24424;-74
2021/12/22 07:01:20;;;;;;;17.92;13.73;;;;;;;-7.08;100.00;96522.13;5012276;28;24423;-73
2021/12/22 07:03:47;;;;;;;17.13;12.60;;;;;;;-7.11;100.00;96515.38;5013475;28;24432;-74
2021/12/22 07:06:13;;;;;;;15.60;12.85;;;;;;;-7.11;100.00;96522.06;5013967;28;24428;-74
2021/12/22 07:08:41;;;;;;;15.27;12.77;;;;;;;-7.09;100.00;96521.25;5013810;28;24425;-74
2021/12/22 07:11:09;;;;;;;17.73;13.57;;;;;;;-7.12;100.00;96526.28;5014820;28;24436;-73
2021/12/22 07:13:35;;;;;;;18.47;14.00;;;;;;;-7.09;100.00;96533.00;5014562;28;24448;-74
2021/12/22 07:16:02;;;;;;;18.40;15.23;;;;;;;-7.20;100.00;96537.84;5014285;28;24487;-74
2021/12/22 07:18:31;;;;;;;18.37;14.60;;;;;;;-7.26;100.00;96535.25;5014868;28;24458;-73
2021/12/22 07:20:57;;;;;;;16.38;13.10;;;;;;;-7.25;100.00;96534.41;5011362;28;24494;-66
2021/12/22 07:23:24;;;;;;;16.90;13.45;;;;;;;-7.19;100.00;96529.50;5013559;28;24494;-73
2021/12/22 07:25:52;;;;;;;14.43;12.13;;;;;;;-7.11;100.00;96545.59;5014299;28;24486;-74
2021/12/22 07:28:18;;;;;;;17.02;13.32;;;;;;;-7.27;100.00;96546.09;5014135;28;24977;-73
2021/12/22 07:30:45;;;;;;;17.80;12.68;;;;;;;-7.16;100.00;96542.13;5014638;28;24425;-74
2021/12/22 07:33:11;;;;;;;16.20;13.32;;;;;;;-7.06;100.00;96541.47;5014027;28;24471;-74
2021/12/22 07:35:42;;;;;;;16.50;12.48;;;;;;;-7.11;100.00;96548.09;5013714;28;24512;-74
2021/12/22 07:38:21;;;;;;;13.18;11.63;;;;;;;-7.26;100.00;96552.00;5014032;28;26502;-74
2021/12/22 07:40:48;;;;;;;15.32;12.43;;;;;;;-7.07;100.00;96557.41;5013558;28;24978;-74
2021/12/22 07:43:15;;;;;;;16.40;13.90;;;;;;;-6.99;100.00;96559.22;5014044;28;24421;-74
2021/12/22 07:45:42;;;;;;;20.77;13.90;;;;;;;-6.86;100.00;96561.09;5014138;28;24428;-74
2021/12/22 07:48:08;;;;;;;15.25;13.65;;;;;;;-6.73;100.00;96555.47;5016653;28;24468;-74
2021/12/22 07:50:35;;;;;;;18.40;13.23;;;;;;;-6.66;100.00;96549.72;5018095;28;24521;-74
2021/12/22 07:53:02;;;;;;;24.98;14.65;;;;;;;-6.73;100.00;96557.13;4999173;28;24428;-74
2021/12/22 07:55:28;;;;;;;19.92;15.50;;;;;;;-6.66;100.00;96557.25;4998214;28;24425;-74
2021/12/22 07:57:54;;;;;;;20.95;17.27;;;;;;;-6.53;100.00;96542.34;4998579;28;24453;-74
2021/12/22 08:00:22;;;;;;;21.40;15.80;;;;;;;-6.49;100.00;96546.59;4998154;28;24443;-74
2021/12/22 08:02:49;;;;;;;19.58;15.05;;;;;;;-6.41;100.00;96555.16;4996744;28;24433;-72
2021/12/22 08:05:15;;;;;;;18.23;15.68;;;;;;;-6.30;100.00;96545.22;5009022;28;24441;-73
2021/12/22 08:07:42;;;;;;;17.58;15.25;;;;;;;-6.27;100.00;96543.56;5017930;28;24420;-73
2021/12/22 08:10:09;;;;;;;17.40;15.15;;;;;;;-6.20;100.00;96545.38;5017705;28;24980;-74
2021/12/22 08:12:36;;;;;;;19.37;15.50;;;;;;;-6.20;100.00;96547.88;5017894;28;24512;-74
2021/12/22 08:15:03;;;;;;;19.92;15.43;;;;;;;-6.12;100.00;96543.84;5018156;28;24467;-74
2021/12/22 08:17:32;;;;;;;18.65;14.95;;;;;;;-6.00;100.00;96542.31;5017294;28;24453;-73
2021/12/22 08:19:59;;;;;;;18.00;16.13;;;;;;;-5.97;100.00;96538.16;5015807;28;24432;-74
2021/12/22 08:22:26;;;;;;;23.80;17.63;;;;;;;-5.88;100.00;96542.44;5000228;28;24503;-74
2021/12/22 08:24:53;;;;;;;21.63;19.27;;;;;;;-5.84;100.00;96549.22;4996401;28;24428;-75
2021/12/22 08:27:21;;;;;;;24.38;20.90;;;;;;;-5.78;100.00;96543.38;4996386;28;24946;-74
2021/12/22 08:29:47;;;;;;;29.55;21.83;;;;;;;-5.79;100.00;96544.22;4997833;28;24551;-74
2021/12/22 08:32:14;;;;;;;27.80;21.48;;;;;;;-5.73;100.00;96546.81;4997230;28;24851;-74
2021/12/22 08:34:43;;;;;;;27.88;21.75;;;;;;;-5.67;100.00;96541.88;4997182;28;24437;-74
2021/12/22 08:39:55;;;;;;;25.02;21.48;;;;;;;-5.81;100.00;96543.38;4996609;28;24440;-74
2021/12/22 08:42:22;;;;;;;22.50;19.33;;;;;;;-5.69;100.00;96534.25;4996575;28;24428;-74
2021/12/22 08:44:50;;;;;;;25.33;19.30;;;;;;;-5.65;100.00;96536.00;4997754;28;24487;-73
2021/12/22 08:47:17;;;;;;;20.58;18.38;;;;;;;-5.46;100.00;96543.78;4997313;28;24961;-73
2021/12/22 08:49:46;;;;;;;25.55;20.48;;;;;;;-5.28;100.00;96544.00;4997071;28;24814;-74
2021/12/22 08:52:12;;;;;;;23.70;19.30;;;;;;;-5.18;100.00;96533.19;5010626;28;24424;-74
2021/12/22 08:54:39;;;;;;;25.33;20.13;;;;;;;-4.98;100.00;96537.56;5017435;28;24838;-74
2021/12/22 08:57:06;;;;;;;22.40;19.90;;;;;;;-4.74;100.00;96539.50;5016286;28;24444;-74
2021/12/22 08:59:33;;;;;;;21.83;19.23;;;;;;;-4.52;100.00;96527.91;5016727;28;24431;-74
2021/12/22 09:02:00;;;;;;;24.60;19.13;;;;;;;-4.34;100.00;96528.00;5016045;28;24433;-74
2021/12/22 09:04:27;;;;;;;21.17;18.85;;;;;;;-4.11;100.00;96529.88;5014171;28;25019;-74
2021/12/22 09:06:55;;;;;;;25.42;19.25;;;;;;;-4.16;100.00;96535.72;5013111;28;24985;-74
2021/12/22 09:09:22;;;;;;;21.80;19.08;;;;;;;-4.02;100.00;96534.97;5011637;28;24525;-74
2021/12/22 09:11:50;;;;;;;28.03;23.30;;;;;;;-3.91;100.00;96539.25;5013474;28;24439;-75
2021/12/22 09:14:18;;;;;;;34.83;27.70;;;;;;;-4.16;100.00;96532.34;5013227;28;24510;-75
2021/12/22 09:16:45;;;;;;;32.35;22.92;;;;;;;-4.23;100.00;96540.72;5012535;28;24419;-75
2021/12/22 09:19:12;;;;;;;27.63;21.30;;;;;;;-4.19;100.00;96533.19;5012875;28;24464;-75
2021/12/22 09:21:39;;;;;;;25.02;21.77;;;;;;;-4.43;100.00;96538.06;5013056;28;24429;-75
2021/12/22 09:24:08;;;;;;;26.23;20.65;;;;;;;-4.46;100.00;96545.63;5013252;28;24475;-75
2021/12/22 09:26:35;;;;;;;34.67;25.70;;;;;;;-4.49;100.00;96541.38;5012846;28;24429;-74
2021/12/22 09:29:02;;;;;;;27.50;24.38;;;;;;;-3.98;100.00;96539.22;5012593;28;24417;-75
2021/12/22 09:31:29;;;;;;;35.67;26.83;;;;;;;-3.71;100.00;96541.06;5012876;28;24972;-75
2021/12/22 09:33:55;;;;;;;30.80;25.38;;;;;;;-3.50;100.00;96540.31;5012772;28;24486;-75
2021/12/22 09:36:23;;;;;;;25.38;22.38;;;;;;;-3.58;100.00;96536.91;5012951;28;24802;-74
2021/12/22 09:38:49;;;;;;;25.60;22.90;;;;;;;-3.45;100.00;96523.44;5012907;28;24451;-75
2021/12/22 09:41:17;;;;;;;27.55;22.38;;;;;;;-3.17;100.00;96525.22;5012886;28;24452;-75
2021/12/22 09:43:43;;;;;;;26.15;22.23;;;;;;;-3.17;100.00;96532.84;5012343;28;24995;-75
2021/12/22 09:46:14;;;;;;;28.00;21.63;;;;;;;-3.21;100.00;96531.13;5012712;28;24451;-75
2021/12/22 09:48:52;;;;;;;28.20;21.52;;;;;;;-2.96;100.00;96533.75;5013032;28;24474;-75
2021/12/22 09:54:08;;;;;;;26.60;21.83;;;;;;;-2.65;99.93;96516.03;5013190;28;24779;-74
2021/12/22 09:56:40;;;;;;;23.90;21.40;;;;;;;-2.54;97.90;96516.88;5012731;28;24428;-74
2021/12/22 09:59:06;;;;;;;27.33;22.75;;;;;;;-2.50;99.46;96509.25;5012738;28;24452;-74
2021/12/22 10:01:33;;;;;;;26.58;22.02;;;;;;;-2.46;98.91;96522.78;5012582;28;24475;-74
2021/12/22 10:04:01;;;;;;;23.65;21.08;;;;;;;-2.53;97.95;96519.41;5012621;28;24781;-74
2021/12/22 10:06:28;;;;;;;25.95;21.35;;;;;;;-2.32;98.12;96522.81;5012279;28;24455;-74
2021/12/22 10:08:57;;;;;;;24.02;21.25;;;;;;;-2.27;98.33;96514.31;5012628;28;24470;-74
2021/12/22 10:11:24;;;;;;;24.67;21.98;;;;;;;-2.52;97.01;96517.72;5012221;28;24454;-75
2021/12/22 10:13:52;;;;;;;24.63;22.10;;;;;;;-2.47;99.18;96514.34;5012477;28;24424;-75
2021/12/22 10:16:21;;;;;;;26.65;22.48;;;;;;;-2.86;99.53;96512.63;5012130;28;24435;-74
2021/12/22 10:18:48;;;;;;;24.60;21.77;;;;;;;-2.50;100.00;96505.88;5012888;28;25017;-74
2021/12/22 10:21:17;;;;;;;25.90;22.77;;;;;;;-2.43;97.06;96515.19;5007224;28;24433;-74
2021/12/22 10:23:46;;;;;;;31.13;24.23;;;;;;;-2.88;100.00;96499.13;4993834;28;24428;-74
2021/12/22 10:26:16;;;;;;;27.47;24.43;;;;;;;-2.66;100.00;96496.59;5011046;28;24512;-74
2021/12/22 10:28:49;;;;;;;26.05;21.98;;;;;;;-2.51;99.63;96491.53;5013672;28;24459;-73
2021/12/22 10:31:18;;;;;;;26.77;21.80;;;;;;;-2.21;98.96;96490.66;5013232;28;24467;-74
2021/12/22 10:33:46;;;;;;;30.45;21.90;;;;;;;-2.42;98.55;96486.44;5013512;28;24431;-74
2021/12/22 10:36:14;;;;;;;30.15;23.17;;;;;;;-2.35;98.42;96477.97;5014625;28;24973;-74
2021/12/22 10:38:49;;;;;;;23.50;21.00;;;;;;;-2.23;97.14;96479.66;5014312;28;24539;-76
2021/12/22 10:41:16;;;;;;;25.58;21.85;;;;;;;-2.39;96.81;96473.75;5014517;28;24461;-75
2021/12/22 10:43:45;;;;;;;23.02;20.63;;;;;;;-2.51;99.27;96473.78;5013588;28;24425;-75
2021/12/22 10:46:15;;;;;;;26.58;22.00;;;;;;;-2.49;100.00;96467.00;5013390;28;24464;-76
2021/12/22 10:51:31;;;;;;;23.70;20.30;;;;;;;-2.57;99.23;96458.56;5012446;28;24428;-76
2021/12/22 10:54:00;;;;;;;26.98;21.77;;;;;;;-2.40;99.34;96461.09;5012638;28;24428;-75
2021/12/22 10:56:30;;;;;;;25.15;21.48;;;;;;;-2.37;99.54;96456.84;5012268;28;24431;-74
2021/12/22 10:59:06;;;;;;;25.98;21.48;;;;;;;-2.18;98.18;96455.13;5013913;28;24455;-74
2021/12/22 11:01:35;;;;;;;25.52;21.83;;;;;;;-2.04;99.11;96445.78;5013847;28;24424;-76
2021/12/22 11:04:06;;;;;;;22.83;20.42;;;;;;;-2.12;97.07;96447.47;5012484;28;24455;-75
2021/12/22 11:06:34;;;;;;;22.85;20.45;;;;;;;-2.42;98.09;96442.47;5012157;28;24778;-74
2021/12/22 11:09:04;;;;;;;23.25;20.95;;;;;;;-2.26;99.25;96434.00;5011851;28;24527;-74
2021/12/22 11:11:35;;;;;;;27.95;22.05;;;;;;;-2.22;97.97;96435.69;5012304;28;24444;-73
2021/12/22 11:14:14;;;;;;;23.90;21.30;;;;;;;-2.28;99.01;96426.38;5011904;28;24984;-74
2021/12/22 11:16:59;;;;;;;30.17;21.05;;;;;;;-2.28;98.61;96428.91;5011847;28;24439;-74
2021/12/22 11:19:28;;;;;;;22.77;20.45;;;;;;;-2.45;100.00;96423.03;5012238;28;24506;-73
2021/12/22 11:22:05;;;;;;;24.83;21.57;;;;;;;-2.32;99.62;96419.63;5012304;28;24428;-74
2021/12/22 11:24:34;;;;;;;25.55;20.40;;;;;;;-2.17;99.25;96407.75;5012051;28;24524;-73